createdAt,value
2023-05-08T00:01:44.594Z,71.53
2023-05-08T00:04:13.429Z,70.82
2023-05-08T00:06:41.581Z,71.44
2023-05-08T00:09:09.552Z,71.30
2023-05-08T00:11:37.384Z,71.67
2023-05-08T00:14:05.893Z,71.77
2023-05-08T00:16:33.947Z,71.38
2023-05-08T00:19:02.112Z,71.66
2023-05-08T00:21:31.128Z,71.73
2023-05-08T00:23:58.958Z,71.97
2023-05-08T00:26:26.833Z,72.85
2023-05-08T00:28:54.777Z,73.22
2023-05-08T00:31:23.989Z,72.56
2023-05-08T00:33:52.391Z,71.89
2023-05-08T00:36:20.553Z,73.62
2023-05-08T00:38:48.805Z,73.24
2023-05-08T00:41:16.692Z,72.49
2023-05-08T00:43:44.651Z,72.68
2023-05-08T00:46:13.824Z,72.24
2023-05-08T00:48:42.572Z,73.89
2023-05-08T00:51:11.375Z,73.42
2023-05-08T00:53:43.398Z,73.73
2023-05-08T00:56:13.716Z,73.47
2023-05-08T00:58:43.826Z,72.92
2023-05-08T01:01:12.075Z,73.00
2023-05-08T01:03:40.807Z,73.49
2023-05-08T01:06:09.358Z,74.65
2023-05-08T01:08:37.327Z,74.14
2023-05-08T01:11:10.846Z,74.50
2023-05-08T01:13:44.760Z,74.30
2023-05-08T01:16:28.544Z,74.22
2023-05-08T01:19:24.494Z,74.78
2023-05-08T01:22:00.936Z,74.55
2023-05-08T01:24:47.819Z,73.69
2023-05-08T01:27:33.236Z,75.37
2023-05-08T01:30:32.215Z,75.27
2023-05-08T01:33:13.104Z,75.12
2023-05-08T01:35:48.017Z,75.86
2023-05-08T01:38:25.335Z,74.42
2023-05-08T01:40:57.193Z,75.33
2023-05-08T01:43:49.911Z,74.88
2023-05-08T01:46:22.928Z,74.86
2023-05-08T01:48:59.434Z,76.51
2023-05-08T01:51:29.224Z,75.13
2023-05-08T01:54:01.304Z,74.66
2023-05-08T01:56:30.874Z,74.86
2023-05-08T01:59:02.745Z,76.28
2023-05-08T02:01:33.567Z,76.47
2023-05-08T02:04:03.664Z,75.58
2023-05-08T02:06:32.578Z,75.50
2023-05-08T02:09:01.538Z,75.86
2023-05-08T02:11:33.269Z,75.88
2023-05-08T02:14:02.864Z,76.11
2023-05-08T02:16:31.811Z,76.54
2023-05-08T02:19:00.812Z,77.11
2023-05-08T02:21:32.093Z,77.55
2023-05-08T02:24:02.131Z,76.52
2023-05-08T02:26:33.176Z,76.16
2023-05-08T02:29:04.093Z,75.22
2023-05-08T02:31:36.350Z,75.05
2023-05-08T02:34:06.195Z,75.77
2023-05-08T02:36:36.632Z,76.62
2023-05-08T02:39:06.108Z,76.29
2023-05-08T02:41:36.417Z,75.15
2023-05-08T02:44:04.317Z,76.11
2023-05-08T02:46:52.963Z,76.93
2023-05-08T02:49:32.301Z,75.83
2023-05-08T02:52:12.592Z,76.59
2023-05-08T02:54:56.261Z,77.14
2023-05-08T02:57:33.380Z,77.27
2023-05-08T03:00:17.379Z,76.43
2023-05-08T03:02:59.790Z,77.99
2023-05-08T03:05:33.897Z,75.80
2023-05-08T03:08:10.525Z,76.97
2023-05-08T03:10:41.522Z,76.46
2023-05-08T03:13:12.308Z,75.88
2023-05-08T03:15:54.500Z,76.47
2023-05-08T03:18:26.971Z,75.08
2023-05-08T03:20:58.310Z,75.77
2023-05-08T03:23:29.596Z,74.96
2023-05-08T03:25:59.310Z,75.40
2023-05-08T03:28:29.402Z,76.04
2023-05-08T03:31:01.132Z,75.57
2023-05-08T03:33:30.161Z,75.00
2023-05-08T03:35:59.816Z,75.41
2023-05-08T03:38:28.289Z,75.69
2023-05-08T03:40:56.250Z,75.86
2023-05-08T03:43:25.762Z,75.42
2023-05-08T03:45:55.655Z,74.84
2023-05-08T03:48:24.827Z,76.53
2023-05-08T03:50:53.606Z,74.72
2023-05-08T03:53:22.225Z,73.95
2023-05-08T03:55:50.775Z,74.72
2023-05-08T03:58:39.031Z,73.88
2023-05-08T04:01:15.463Z,75.88
2023-05-08T04:04:12.702Z,75.69
2023-05-08T04:06:50.596Z,74.83
2023-05-08T04:09:41.264Z,76.38
2023-05-08T04:12:15.317Z,75.51
2023-05-08T04:14:55.495Z,76.39
2023-05-08T04:17:43.980Z,75.83
2023-05-08T04:20:17.644Z,75.56
2023-05-08T04:22:48.500Z,76.22
2023-05-08T04:25:18.652Z,75.92
2023-05-08T04:27:48.576Z,74.81
2023-05-08T04:30:17.487Z,75.06
2023-05-08T04:32:47.989Z,74.83
2023-05-08T04:35:18.163Z,76.59
2023-05-08T04:37:47.771Z,76.21
2023-05-08T04:40:15.952Z,74.56
2023-05-08T04:42:47.139Z,74.06
2023-05-08T04:45:17.061Z,75.12
2023-05-08T04:47:44.990Z,75.51
2023-05-08T04:50:12.986Z,74.61
2023-05-08T04:52:41.592Z,75.09
2023-05-08T04:55:10.591Z,74.76
2023-05-08T04:57:40.074Z,76.16
2023-05-08T05:00:09.253Z,74.75
2023-05-08T05:02:40.637Z,75.93
2023-05-08T05:05:08.766Z,76.29
2023-05-08T05:07:36.941Z,76.24
2023-05-08T05:10:05.077Z,76.96
2023-05-08T05:12:34.431Z,76.51
2023-05-08T05:15:03.374Z,74.56
2023-05-08T05:17:35.478Z,75.10
2023-05-08T05:20:05.853Z,75.17
2023-05-08T05:22:34.297Z,75.97
2023-05-08T05:25:02.547Z,75.37
2023-05-08T05:27:31.004Z,76.57
2023-05-08T05:29:59.243Z,75.43
2023-05-08T05:32:27.936Z,74.26
2023-05-08T05:34:56.635Z,76.19
2023-05-08T05:37:24.672Z,75.86
2023-05-08T05:39:53.505Z,75.95
2023-05-08T05:42:21.644Z,74.57
2023-05-08T05:44:49.512Z,75.93
2023-05-08T05:47:17.649Z,75.05
2023-05-08T05:49:48.519Z,73.83
2023-05-08T05:52:16.972Z,75.37
2023-05-08T05:54:46.603Z,73.99
2023-05-08T05:57:14.698Z,74.00
2023-05-08T05:59:43.509Z,74.10
2023-05-08T06:02:18.569Z,73.15
2023-05-08T06:04:46.765Z,73.44
2023-05-08T06:07:15.423Z,74.63
2023-05-08T06:09:43.282Z,75.30
2023-05-08T06:12:12.008Z,75.18
2023-05-08T06:14:40.094Z,74.44
2023-05-08T06:17:08.104Z,74.40
2023-05-08T06:19:36.634Z,74.41
2023-05-08T06:22:04.494Z,74.42
2023-05-08T06:24:32.456Z,75.20
2023-05-08T06:27:00.335Z,74.70
2023-05-08T06:29:28.173Z,74.48
2023-05-08T06:31:57.136Z,73.42
2023-05-08T06:34:25.130Z,74.42
2023-05-08T06:36:53.287Z,73.22
2023-05-08T06:39:21.266Z,73.72
2023-05-08T06:41:49.716Z,73.67
2023-05-08T06:44:25.685Z,72.69
2023-05-08T06:46:53.605Z,74.44
2023-05-08T06:49:22.902Z,74.49
2023-05-08T06:51:51.063Z,74.30
2023-05-08T06:54:19.121Z,73.34
2023-05-08T06:56:47.092Z,73.38
2023-05-08T06:59:14.937Z,72.98
2023-05-08T07:01:43.360Z,73.51
2023-05-08T07:04:11.510Z,72.69
2023-05-08T07:06:39.350Z,72.53
2023-05-08T07:09:07.227Z,72.85
2023-05-08T07:11:35.211Z,72.21
2023-05-08T07:14:03.114Z,73.67
2023-05-08T07:16:31.124Z,74.41
2023-05-08T07:18:59.087Z,72.88
2023-05-08T07:21:27.049Z,71.70
2023-05-08T07:23:55.055Z,72.15
2023-05-08T07:26:22.918Z,72.78
2023-05-08T07:28:51.299Z,71.55
2023-05-08T07:31:19.194Z,71.31
2023-05-08T07:33:47.196Z,72.41
2023-05-08T07:36:15.236Z,70.98
2023-05-08T07:38:43.228Z,71.10
2023-05-08T07:41:11.164Z,73.19
2023-05-08T07:43:39.352Z,71.38
2023-05-08T07:46:07.276Z,71.60
2023-05-08T07:48:35.184Z,70.72
2023-05-08T07:51:03.044Z,71.29
2023-05-08T07:53:30.925Z,70.11
2023-05-08T07:55:58.821Z,70.11
2023-05-08T07:58:26.857Z,69.36
2023-05-08T08:00:54.730Z,69.82
2023-05-08T08:03:22.903Z,70.42
2023-05-08T08:05:50.904Z,71.11
2023-05-08T08:08:19.010Z,70.16
2023-05-08T08:10:46.902Z,69.02
2023-05-08T08:13:14.771Z,69.08
2023-05-08T08:15:42.676Z,68.93
2023-05-08T08:18:10.832Z,69.31
2023-05-08T08:20:38.874Z,68.65
2023-05-08T08:23:07.138Z,70.16
2023-05-08T08:25:35.094Z,69.26
2023-05-08T08:28:03.069Z,70.37
2023-05-08T08:30:31.020Z,68.58
2023-05-08T08:33:02.281Z,69.27
2023-05-08T08:35:30.333Z,68.05
2023-05-08T08:37:58.368Z,67.45
2023-05-08T08:40:26.731Z,68.48
2023-05-08T08:42:55.138Z,67.31
2023-05-08T08:45:23.558Z,67.99
2023-05-08T08:47:52.986Z,68.78
2023-05-08T08:50:23.062Z,67.73
2023-05-08T08:53:12.573Z,67.03
2023-05-08T08:55:45.253Z,67.94
2023-05-08T08:58:33.132Z,67.30
2023-05-08T09:01:04.090Z,66.67
2023-05-08T09:03:32.814Z,66.56
2023-05-08T09:06:01.490Z,66.17
2023-05-08T09:08:29.900Z,67.26
2023-05-08T09:10:57.907Z,68.23
2023-05-08T09:13:26.370Z,66.49
2023-05-08T09:15:54.546Z,65.32
2023-05-08T09:18:22.668Z,65.71
2023-05-08T09:20:51.753Z,66.18
2023-05-08T09:23:19.828Z,65.42
2023-05-08T09:25:49.338Z,64.92
2023-05-08T09:28:25.562Z,65.64
2023-05-08T09:30:56.249Z,66.76
2023-05-08T09:33:26.300Z,66.04
2023-05-08T09:35:55.635Z,64.32
2023-05-08T09:38:37.909Z,64.65
2023-05-08T09:41:07.457Z,66.49
2023-05-08T09:43:36.021Z,67.26
2023-05-08T09:46:36.616Z,65.23
2023-05-08T09:49:04.617Z,66.52
2023-05-08T09:51:34.684Z,65.20
2023-05-08T09:54:05.910Z,65.75
2023-05-08T09:56:35.112Z,64.78
2023-05-08T09:59:04.834Z,64.96
2023-05-08T10:01:35.638Z,64.93
2023-05-08T10:04:06.083Z,63.88
2023-05-08T10:06:36.432Z,65.28
2023-05-08T10:09:14.369Z,63.51
2023-05-08T10:11:52.882Z,62.91
2023-05-08T10:14:22.422Z,64.37
2023-05-08T10:16:52.981Z,64.95
2023-05-08T10:19:28.358Z,63.10
2023-05-08T10:22:00.771Z,64.49
2023-05-08T10:24:33.864Z,63.71
2023-05-08T10:27:28.093Z,63.89
2023-05-08T10:30:01.280Z,62.02
2023-05-08T10:32:40.510Z,63.26
2023-05-08T10:35:10.893Z,61.96
2023-05-08T10:37:39.805Z,63.93
2023-05-08T10:40:08.731Z,62.44
2023-05-08T10:42:36.638Z,61.30
2023-05-08T10:45:09.009Z,62.17
2023-05-08T10:48:04.979Z,61.83
2023-05-08T10:50:51.757Z,61.29
2023-05-08T10:53:27.303Z,63.27
2023-05-08T10:55:55.908Z,61.76
2023-05-08T10:58:23.802Z,64.81
2023-05-08T11:00:57.410Z,62.10
2023-05-08T11:03:31.187Z,64.10
2023-05-08T11:06:01.834Z,61.82
2023-05-08T11:08:31.455Z,63.47
2023-05-08T11:11:02.133Z,63.62
2023-05-08T11:13:32.859Z,62.23
2023-05-08T11:16:01.561Z,61.92
2023-05-08T11:18:41.747Z,62.27
2023-05-08T11:21:23.653Z,61.68
2023-05-08T11:24:00.540Z,61.54
2023-05-08T11:26:40.713Z,61.09
2023-05-08T11:29:18.293Z,59.91
2023-05-08T11:31:50.988Z,59.97
2023-05-08T11:34:43.966Z,60.83
2023-05-08T11:37:17.499Z,56.84
2023-05-08T11:39:46.616Z,58.73
2023-05-08T11:42:29.454Z,56.11
2023-05-08T11:45:06.853Z,55.14
2023-05-08T11:47:43.060Z,53.55
2023-05-08T11:50:13.179Z,54.40
2023-05-08T11:52:43.183Z,55.21
2023-05-08T11:55:13.169Z,55.04
2023-05-08T11:57:41.395Z,55.08
2023-05-08T12:00:11.485Z,55.80
2023-05-08T12:02:46.722Z,57.99
2023-05-08T12:05:14.809Z,58.90
2023-05-08T12:07:44.595Z,57.79
2023-05-08T12:10:17.104Z,58.57
2023-05-08T12:12:45.841Z,59.90
2023-05-08T12:15:15.474Z,60.67
2023-05-08T12:17:43.893Z,57.15
2023-05-08T12:20:14.472Z,57.89
2023-05-08T12:22:50.173Z,58.91
2023-05-08T12:25:18.872Z,56.75
2023-05-08T12:27:47.080Z,59.50
2023-05-08T12:30:16.605Z,56.76
2023-05-08T12:32:44.990Z,56.90
2023-05-08T12:35:14.621Z,57.17
2023-05-08T12:37:42.801Z,59.87
2023-05-08T12:40:26.117Z,58.79
2023-05-08T12:42:54.704Z,57.15
2023-05-08T12:45:29.531Z,55.83
2023-05-08T12:48:05.857Z,59.37
2023-05-08T12:50:39.228Z,59.38
2023-05-08T12:53:15.203Z,56.10
2023-05-08T12:55:57.644Z,58.16
2023-05-08T12:58:29.283Z,59.28
2023-05-08T13:01:05.540Z,57.34
2023-05-08T13:03:34.238Z,56.92
2023-05-08T13:06:02.453Z,54.52
2023-05-08T13:08:30.499Z,57.19
2023-05-08T13:10:58.513Z,57.53
2023-05-08T13:13:28.435Z,56.46
2023-05-08T13:15:57.222Z,56.69
2023-05-08T13:18:27.642Z,57.28
2023-05-08T13:20:56.365Z,58.39
2023-05-08T13:23:24.704Z,58.16
2023-05-08T13:25:52.632Z,58.11
2023-05-08T13:28:20.543Z,57.80
2023-05-08T13:30:48.603Z,57.01
2023-05-08T13:33:16.451Z,56.73
2023-05-08T13:35:44.573Z,58.00
2023-05-08T13:38:12.517Z,56.88
2023-05-08T13:40:40.517Z,57.90
2023-05-08T13:43:08.442Z,56.89
2023-05-08T13:45:36.356Z,56.94
2023-05-08T13:48:04.637Z,56.09
2023-05-08T13:50:32.514Z,57.02
2023-05-08T13:53:00.669Z,57.05
2023-05-08T13:55:28.511Z,57.67
2023-05-08T13:57:58.026Z,57.46
2023-05-08T14:00:27.907Z,55.79
2023-05-08T14:02:56.391Z,58.72
2023-05-08T14:05:24.372Z,58.50
2023-05-08T14:07:52.456Z,57.63
2023-05-08T14:10:20.383Z,59.83
2023-05-08T14:12:48.390Z,58.36
2023-05-08T14:15:16.445Z,59.64
2023-05-08T14:17:44.580Z,59.35
2023-05-08T14:20:12.585Z,58.27
2023-05-08T14:22:40.737Z,55.82
2023-05-08T14:25:09.269Z,57.83
2023-05-08T14:27:37.231Z,58.38
2023-05-08T14:30:05.962Z,57.38
2023-05-08T14:32:35.003Z,56.98
2023-05-08T14:35:03.148Z,55.98
2023-05-08T14:37:31.260Z,56.66
2023-05-08T14:39:59.490Z,57.43
2023-05-08T14:42:27.895Z,56.25
2023-05-08T14:44:56.092Z,56.47
2023-05-08T14:47:24.242Z,58.19
2023-05-08T14:49:53.818Z,57.34
2023-05-08T14:52:21.764Z,59.92
2023-05-08T14:54:53.668Z,57.17
2023-05-08T14:57:21.904Z,58.47
2023-05-08T14:59:54.909Z,57.29
2023-05-08T15:02:24.259Z,58.08
2023-05-08T15:04:52.178Z,59.38
2023-05-08T15:07:20.116Z,60.15
2023-05-08T15:09:47.997Z,57.26
2023-05-08T15:12:15.896Z,58.75
2023-05-08T15:14:43.788Z,57.27
2023-05-08T15:17:11.622Z,58.98
2023-05-08T15:19:39.727Z,58.28
2023-05-08T15:22:07.634Z,57.18
2023-05-08T15:24:35.512Z,60.85
2023-05-08T15:27:03.884Z,59.96
2023-05-08T15:29:31.896Z,59.95
2023-05-08T15:32:00.073Z,58.87
2023-05-08T15:34:32.364Z,58.96
2023-05-08T15:37:00.821Z,58.64
2023-05-08T15:39:28.932Z,59.05
2023-05-08T15:41:57.439Z,60.83
2023-05-08T15:44:28.761Z,60.37
2023-05-08T15:47:02.229Z,59.73
2023-05-08T15:49:30.085Z,60.36
2023-05-08T15:51:57.907Z,59.28
2023-05-08T15:54:25.845Z,60.06
2023-05-08T15:56:53.720Z,60.66
2023-05-08T15:59:21.645Z,58.11
2023-05-08T16:01:50.821Z,58.89
2023-05-08T16:04:19.943Z,58.19
2023-05-08T16:06:47.798Z,59.22
2023-05-08T16:09:15.616Z,59.62
2023-05-08T16:11:43.721Z,60.78
2023-05-08T16:14:11.537Z,58.66
2023-05-08T16:16:39.940Z,59.30
2023-05-08T16:19:08.017Z,60.08
2023-05-08T16:21:36.154Z,59.48
2023-05-08T16:24:04.177Z,60.95
2023-05-08T16:26:32.059Z,59.82
2023-05-08T16:29:00.033Z,60.54
2023-05-08T16:31:29.137Z,59.32
2023-05-08T16:33:57.080Z,60.04
2023-05-08T16:36:24.973Z,60.28
2023-05-08T16:38:52.977Z,60.50
2023-05-08T16:41:21.529Z,61.48
2023-05-08T16:43:49.491Z,60.52
2023-05-08T16:46:20.858Z,61.70
2023-05-08T16:48:54.686Z,61.97
2023-05-08T16:51:22.533Z,61.35
2023-05-08T16:53:50.634Z,60.94
2023-05-08T16:56:18.729Z,60.99
2023-05-08T16:58:46.670Z,62.16
2023-05-08T17:01:14.589Z,62.26
2023-05-08T17:03:42.576Z,62.02
2023-05-08T17:06:10.651Z,59.81
2023-05-08T17:08:38.766Z,62.00
2023-05-08T17:11:07.181Z,60.56
2023-05-08T17:13:35.348Z,60.38
2023-05-08T17:16:04.208Z,59.07
2023-05-08T17:18:32.270Z,60.30
2023-05-08T17:21:00.195Z,60.97
2023-05-08T17:23:28.411Z,60.71
2023-05-08T17:26:00.332Z,59.66
2023-05-08T17:28:28.203Z,61.82
2023-05-08T17:30:56.141Z,62.97
2023-05-08T17:33:24.389Z,62.55
2023-05-08T17:35:52.283Z,61.48
2023-05-08T17:38:20.396Z,61.19
2023-05-08T17:40:48.315Z,60.67
2023-05-08T17:43:16.521Z,60.65
2023-05-08T17:45:45.567Z,61.88
2023-05-08T17:48:14.190Z,60.44
2023-05-08T17:50:43.519Z,61.39
2023-05-08T17:53:11.337Z,62.39
2023-05-08T17:55:39.434Z,61.20
2023-05-08T17:58:07.251Z,61.19
2023-05-08T18:00:35.183Z,59.42
2023-05-08T18:03:03.534Z,58.06
2023-05-08T18:05:31.505Z,59.00
2023-05-08T18:07:59.604Z,59.29
2023-05-08T18:10:27.469Z,59.98
2023-05-08T18:12:55.946Z,60.12
2023-05-08T18:15:23.879Z,60.90
2023-05-08T18:17:53.521Z,60.74
2023-05-08T18:20:21.490Z,61.53
2023-05-08T18:22:49.487Z,62.96
2023-05-08T18:25:17.389Z,61.77
2023-05-08T18:27:47.320Z,62.09
2023-05-08T18:30:15.445Z,63.21
2023-05-08T18:32:43.876Z,62.57
2023-05-08T18:35:11.832Z,61.93
2023-05-08T18:37:39.936Z,62.90
2023-05-08T18:40:08.534Z,62.39
2023-05-08T18:42:36.559Z,63.19
2023-05-08T18:45:05.966Z,62.80
2023-05-08T18:47:34.191Z,63.14
2023-05-08T18:50:02.098Z,60.53
2023-05-08T18:52:29.925Z,61.01
2023-05-08T18:54:57.737Z,59.81
2023-05-08T18:57:25.760Z,61.08
2023-05-08T18:59:53.815Z,59.42
2023-05-08T19:02:24.672Z,60.21
2023-05-08T19:04:52.747Z,59.52
2023-05-08T19:07:20.694Z,59.87
2023-05-08T19:09:48.533Z,59.17
2023-05-08T19:12:16.423Z,58.68
2023-05-08T19:14:44.582Z,57.89
2023-05-08T19:17:12.411Z,58.11
2023-05-08T19:19:40.340Z,59.81
2023-05-08T19:22:08.231Z,58.61
2023-05-08T19:24:36.072Z,59.05
2023-05-08T19:27:04.383Z,58.89
2023-05-08T19:29:34.767Z,59.60
2023-05-08T19:32:03.331Z,59.29
2023-05-08T19:34:32.437Z,59.60
2023-05-08T19:37:00.328Z,59.31
2023-05-08T19:39:28.196Z,57.77
2023-05-08T19:41:56.383Z,58.03
2023-05-08T19:44:24.294Z,58.67
2023-05-08T19:46:52.219Z,58.06
2023-05-08T19:49:20.129Z,58.88
2023-05-08T19:51:49.486Z,58.51
2023-05-08T19:54:17.312Z,58.37
2023-05-08T19:56:45.215Z,57.77
2023-05-08T19:59:13.139Z,57.39
2023-05-08T20:01:41.038Z,58.72
2023-05-08T20:04:11.572Z,59.39
2023-05-08T20:06:39.968Z,59.42
2023-05-08T20:09:08.734Z,59.74
2023-05-08T20:11:36.569Z,60.04
2023-05-08T20:14:04.391Z,58.87
2023-05-08T20:16:32.378Z,57.33
2023-05-08T20:19:01.610Z,56.84
2023-05-08T20:21:33.898Z,57.90
2023-05-08T20:24:02.138Z,57.94
2023-05-08T20:26:30.498Z,59.52
2023-05-08T20:28:58.882Z,59.50
2023-05-08T20:31:27.785Z,59.38
2023-05-08T20:33:55.794Z,59.51
2023-05-08T20:36:23.655Z,59.01
2023-05-08T20:38:51.502Z,59.72
2023-05-08T20:41:19.439Z,59.23
2023-05-08T20:43:47.300Z,59.13
2023-05-08T20:46:15.579Z,57.69
2023-05-08T20:48:43.582Z,56.92
2023-05-08T20:51:11.442Z,57.78
2023-05-08T20:53:39.279Z,57.05
2023-05-08T20:56:07.759Z,58.11
2023-05-08T20:58:35.612Z,57.91
2023-05-08T21:01:03.532Z,57.21
2023-05-08T21:03:31.624Z,58.05
2023-05-08T21:05:59.453Z,56.96
2023-05-08T21:08:27.269Z,57.01
2023-05-08T21:10:55.431Z,56.05
2023-05-08T21:13:23.352Z,55.82
2023-05-08T21:15:51.484Z,54.65
2023-05-08T21:18:19.373Z,55.38
2023-05-08T21:20:49.947Z,55.51
2023-05-08T21:23:18.909Z,56.22
2023-05-08T21:25:47.333Z,55.61
2023-05-08T21:28:16.398Z,55.74
2023-05-08T21:30:45.028Z,56.85
2023-05-08T21:33:14.058Z,56.05
2023-05-08T21:35:42.951Z,56.86
2023-05-08T21:38:12.111Z,56.65
2023-05-08T21:40:40.022Z,55.10
2023-05-08T21:43:08.220Z,55.69
2023-05-08T21:45:36.279Z,55.36
2023-05-08T21:48:04.462Z,55.46
2023-05-08T21:50:32.346Z,55.84
2023-05-08T21:53:00.347Z,56.28
2023-05-08T21:55:29.862Z,55.70
2023-05-08T21:57:58.846Z,55.38
2023-05-08T22:00:26.857Z,55.36
2023-05-08T22:02:54.913Z,56.00
2023-05-08T22:05:23.683Z,55.99
2023-05-08T22:07:51.826Z,56.05
2023-05-08T22:10:21.446Z,55.52
2023-05-08T22:12:49.315Z,55.96
2023-05-08T22:15:29.096Z,55.86
2023-05-08T22:17:59.291Z,55.94
2023-05-08T22:20:27.505Z,55.36
2023-05-08T22:22:55.459Z,56.08
2023-05-08T22:25:23.461Z,57.02
2023-05-08T22:27:51.563Z,56.52
2023-05-08T22:30:19.401Z,56.14
2023-05-08T22:32:57.096Z,55.79
2023-05-08T22:35:27.437Z,56.20
2023-05-08T22:37:57.336Z,54.21
2023-05-08T22:40:25.483Z,55.18
2023-05-08T22:42:55.832Z,55.67
2023-05-08T22:45:23.905Z,55.07
2023-05-08T22:47:51.937Z,54.74
2023-05-08T22:50:20.206Z,56.30
2023-05-08T22:52:48.040Z,56.38
2023-05-08T22:55:16.537Z,56.15
2023-05-08T22:57:44.794Z,55.56
2023-05-08T23:00:13.137Z,56.17
2023-05-08T23:02:41.056Z,55.58
2023-05-08T23:05:09.332Z,56.26
2023-05-08T23:07:37.473Z,55.58
2023-05-08T23:10:05.629Z,56.09
2023-05-08T23:12:33.584Z,56.46
2023-05-08T23:15:01.391Z,56.29
2023-05-08T23:17:29.325Z,56.02
2023-05-08T23:20:53.821Z,56.27
2023-05-08T23:23:40.299Z,55.60
2023-05-08T23:26:08.253Z,56.67
2023-05-08T23:28:36.443Z,56.04
2023-05-08T23:31:04.543Z,56.20
2023-05-08T23:33:32.381Z,56.22
2023-05-08T23:36:00.252Z,56.23
2023-05-08T23:38:28.146Z,55.24
2023-05-08T23:40:56.015Z,55.66
2023-05-08T23:43:23.885Z,56.79
2023-05-08T23:45:51.879Z,57.18
2023-05-08T23:48:19.694Z,55.45
2023-05-08T23:50:48.208Z,56.61
2023-05-08T23:53:16.288Z,55.22
2023-05-08T23:55:44.124Z,56.26
2023-05-08T23:58:12.016Z,56.46
